Track Цыденов Александр

Time Latitude Longitude Accuracy (66% radius in meters) Altitude (meters) Speed (km/hour) Bearing (degrees) Battery (%) GPS flag
04:09:55 51.900006 107.667372 6.0679998397827 678 0 0 38 1 delete
04:09:48 51.899996 107.667382 7.585000038147 678 0 0 38 1 delete
04:09:45 51.899991 107.667396 6.0679998397827 678 0 0 38 1 delete
04:09:35 51.899967 107.667420 6.0679998397827 681 0.83999997377396 351.39999389648 38 1 delete
04:09:29 51.899918 107.667454 6.0679998397827 683 0.94999998807907 12.300000190735 38 1 delete
04:09:24 51.899898 107.667458 10.618999481201 679 0.87999999523163 24.799999237061 38 1 delete
04:09:14 51.899859 107.667499 10.618999481201 671 0.60000002384186 30.200000762939 38 1 delete
04:09:11 51.899839 107.667538 9.1019992828369 665 0.63999998569489 359.5 38 1 delete
04:09:04 51.899773 107.667628 12.135999679565 675 0.41999998688698 8.6000003814697 38 1 delete
04:09:03 51.899766 107.667630 12.135999679565 675 0.68999999761581 14.800000190735 38 1 delete
04:08:53 51.899693 107.667608 9.1019992828369 674 0.86000001430511 357.10000610352 38 1 delete
04:08:49 51.899672 107.667629 7.585000038147 671 0.74000000953674 356 38 1 delete
04:08:43 51.899639 107.667641 9.1019992828369 674 0 0 38 1 delete
04:08:32 51.899591 107.667711 9.1019992828369 679 0 0 38 1 delete
04:08:29 51.899604 107.667728 9.1019992828369 680 0 0 38 1 delete
04:08:22 51.899588 107.667873 9.1019992828369 683 0.87999999523163 263.10000610352 38 1 delete
04:08:21 51.899586 107.667906 9.1019992828369 684 1.289999961853 267.29998779297 38 1 delete
04:08:16 51.899565 107.668023 9.1019992828369 683 1.1000000238419 278.79998779297 38 1 delete
04:08:10 51.899548 107.668110 9.1019992828369 674 0 0 38 1 delete
04:07:59 51.899503 107.668146 10.618999481201 676 1.3600000143051 290.39999389648 38 1 delete
04:07:52 51.899450 107.668274 6.0679998397827 678 1.4199999570847 303.39999389648 38 1 delete
04:07:48 51.899411 107.668360 7.585000038147 678 1.4400000572205 314.29998779297 38 1 delete
04:07:46 51.899393 107.668395 6.0679998397827 677 1.0800000429153 314.29998779297 38 1 delete
04:07:38 51.899365 107.668535 7.585000038147 672 1.7300000190735 274.39999389648 38 1 delete
04:07:29 51.899342 107.668693 6.0679998397827 682 1.2699999809265 311.5 38 1 delete
04:07:26 51.899341 107.668725 6.0679998397827 681 0 0 38 1 delete
04:07:15 51.899350 107.668819 6.0679998397827 684 0 0 38 1 delete
04:07:09 51.899380 107.668845 9.1019992828369 684 0.30000001192093 260.10000610352 38 1 delete
04:07:04 51.899392 107.668909 7.585000038147 685 0.81000000238419 265.29998779297 38 1 delete
04:06:53 51.899424 107.668981 9.1019992828369 686 0 0 38 1 delete
04:06:52 51.899427 107.668985 9.1019992828369 686 0 0 38 1 delete
04:06:42 51.899450 107.669030 7.585000038147 683 0 0 38 1 delete
04:06:31 51.899502 107.669067 7.585000038147 685 0.76999998092651 204.5 38 1 delete
04:06:30 51.899512 107.669076 7.585000038147 685 0.75 227.5 38 1 delete
04:06:20 51.899537 107.669104 6.0679998397827 686 0 0 38 1 delete
04:06:10 51.899599 107.669108 6.0679998397827 683 0 0 38 1 delete
04:06:09 51.899611 107.669100 6.0679998397827 683 1.210000038147 173.10000610352 38 1 delete
04:06:03 51.899692 107.669076 9.1019992828369 684 1.6200000047684 162.39999389648 38 1 delete
04:05:58 51.899728 107.669066 7.585000038147 683 0 0 38 1 delete
04:05:47 51.899813 107.669050 4.5509996414185 686 0 0 38 1 delete
04:05:34 51.899813 107.669050 6.0679998397827 685 0 0 38 1 delete
04:05:21 51.899813 107.669050 6.0679998397827 686 0 0 38 1 delete
04:05:11 51.899813 107.669050 4.5509996414185 686 0 0 38 1 delete
04:05:00 51.899812 107.669050 4.5509996414185 687 0 0 38 1 delete
04:04:49 51.899813 107.669050 4.5509996414185 686 0 0 38 1 delete
04:04:38 51.899812 107.669050 4.5509996414185 685 0 0 38 1 delete
04:04:25 51.899812 107.669050 4.5509996414185 686 0 0 38 1 delete
04:04:15 51.899810 107.669049 4.5509996414185 685 0 0 38 1 delete
04:04:03 51.899813 107.669063 4.5509996414185 685 0 0 38 1 delete
04:03:52 51.899813 107.669063 4.5509996414185 685 0 0 38 1 delete